createdAt,value
2022-10-11T00:01:54.146Z,88.83
2022-10-11T00:11:54.455Z,88.83
2022-10-11T00:21:54.473Z,89.69
2022-10-11T00:31:54.804Z,89.48
2022-10-11T00:41:54.904Z,90.38
2022-10-11T00:51:55.049Z,92.01
2022-10-11T01:01:55.083Z,88.67
2022-10-11T01:11:55.398Z,88.36
2022-10-11T01:21:55.423Z,90.14
2022-10-11T01:31:55.749Z,90.55
2022-10-11T01:41:55.789Z,90.24
2022-10-11T01:51:56.094Z,91.66
2022-10-11T02:01:56.173Z,93.90
2022-10-11T02:11:56.352Z,95.58
2022-10-11T02:21:56.373Z,96.75
2022-10-11T02:31:56.692Z,97.09
2022-10-11T02:41:56.724Z,97.09
2022-10-11T02:51:57.056Z,97.30
2022-10-11T03:01:57.207Z,97.20
2022-10-11T03:11:57.406Z,97.34
2022-10-11T03:21:57.418Z,97.29
2022-10-11T03:31:57.746Z,97.29
2022-10-11T03:41:57.776Z,97.19
2022-10-11T03:51:58.094Z,97.39
2022-10-11T04:01:58.193Z,97.29
2022-10-11T04:11:58.334Z,97.60
2022-10-11T04:21:58.362Z,95.00
2022-10-11T04:31:58.689Z,91.75
2022-10-11T04:41:58.719Z,94.14
2022-10-11T04:51:59.035Z,94.04
2022-10-11T05:01:59.162Z,89.36
2022-10-11T05:11:59.278Z,90.38
2022-10-11T05:21:59.296Z,91.85
2022-10-11T05:31:59.634Z,92.67
2022-10-11T05:41:59.677Z,93.43
2022-10-11T05:51:59.988Z,94.65
2022-10-11T06:02:00.002Z,93.99
2022-10-11T06:12:00.332Z,94.30
2022-10-11T06:22:00.370Z,93.69
2022-10-11T06:32:00.691Z,91.71
2022-10-11T06:42:00.720Z,93.29
2022-10-11T06:52:01.038Z,94.31
2022-10-11T07:02:01.070Z,95.03
2022-10-11T07:12:01.387Z,95.39
2022-10-11T07:22:01.423Z,94.32
2022-10-11T07:32:01.740Z,93.51
2022-10-11T07:42:01.756Z,93.43
2022-10-11T07:52:02.080Z,92.71
2022-10-11T08:02:02.154Z,93.06
2022-10-11T08:12:02.345Z,93.12
2022-10-11T08:22:02.383Z,92.06
2022-10-11T08:32:02.679Z,89.37
2022-10-11T08:42:02.710Z,89.78
2022-10-11T08:52:03.032Z,88.38
2022-10-11T09:02:03.047Z,85.84
2022-10-11T09:12:03.386Z,80.50
2022-10-11T09:22:03.413Z,74.13
2022-10-11T09:32:03.740Z,77.39
2022-10-11T09:42:03.749Z,76.39
2022-10-11T09:52:04.088Z,77.66
2022-10-11T10:02:04.166Z,79.24
2022-10-11T10:12:04.434Z,75.54
2022-10-11T10:22:04.471Z,74.55
2022-10-11T10:32:20.241Z,73.88
2022-10-11T10:42:05.938Z,76.54
2022-10-11T10:52:06.257Z,69.96
2022-10-11T11:02:28.244Z,70.66
2022-10-11T11:12:06.556Z,70.39
2022-10-11T11:22:05.848Z,67.85
2022-10-11T11:32:05.879Z,68.76
2022-10-11T11:42:06.208Z,69.82
2022-10-11T11:52:06.433Z,67.52
2022-10-11T12:02:06.809Z,67.99
2022-10-11T12:12:06.630Z,69.12
2022-10-11T12:22:06.910Z,66.82
2022-10-11T12:32:07.132Z,67.29
2022-10-11T12:42:07.460Z,66.83
2022-10-11T12:52:07.497Z,65.10
2022-10-11T13:02:07.816Z,68.23
2022-10-11T13:12:07.852Z,66.66
2022-10-11T13:22:08.161Z,66.86
2022-10-11T13:32:08.197Z,66.66
2022-10-11T13:42:08.518Z,69.49
2022-10-11T13:52:08.572Z,70.26
2022-10-11T14:02:08.873Z,67.59
2022-10-11T14:12:08.891Z,66.09
2022-10-11T14:22:09.211Z,65.79
2022-10-11T14:32:09.242Z,68.32
2022-10-11T14:42:09.566Z,68.85
2022-10-11T14:52:09.587Z,70.86
2022-10-11T15:02:09.910Z,72.53
2022-10-11T15:12:09.935Z,72.06
2022-10-11T15:22:10.266Z,74.01
2022-10-11T15:32:10.349Z,74.15
2022-10-11T15:42:10.621Z,74.88
2022-10-11T15:52:10.664Z,75.66
2022-10-11T16:02:11.107Z,77.20
2022-10-11T16:12:11.158Z,77.50
2022-10-11T16:22:11.409Z,79.49
2022-10-11T16:32:11.647Z,80.64
2022-10-11T16:42:11.965Z,80.78
2022-10-11T16:52:11.989Z,81.52
2022-10-11T17:02:12.326Z,82.84
2022-10-11T17:12:12.392Z,82.57
2022-10-11T17:22:12.460Z,81.26
2022-10-11T17:32:12.897Z,83.01
2022-10-11T17:42:12.976Z,83.15
2022-10-11T17:52:13.938Z,84.11
2022-10-11T18:02:13.307Z,84.85
2022-10-11T18:12:13.209Z,84.75
2022-10-11T18:22:13.533Z,85.70
2022-10-11T18:32:13.766Z,86.45
2022-10-11T18:42:13.907Z,87.66
2022-10-11T18:52:14.910Z,88.96
2022-10-11T19:02:14.438Z,89.17
2022-10-11T19:12:14.173Z,89.26
2022-10-11T19:22:14.557Z,89.92
2022-10-11T19:32:14.813Z,90.42
2022-10-11T19:42:15.153Z,90.32
2022-10-11T19:52:15.030Z,89.72
2022-10-11T20:02:16.312Z,89.92
2022-10-11T20:12:15.469Z,91.89
2022-10-11T20:22:15.694Z,92.94
2022-10-11T20:32:15.707Z,93.65
2022-10-11T20:42:16.041Z,93.51
2022-10-11T20:52:16.068Z,92.94
2022-10-11T21:02:18.938Z,93.05
2022-10-11T21:12:16.417Z,92.99
2022-10-11T21:22:19.946Z,94.25
2022-10-11T21:32:16.768Z,93.49
2022-10-11T21:42:17.132Z,93.49
2022-10-11T21:52:17.158Z,94.15
2022-10-11T22:02:17.518Z,94.25
2022-10-11T22:12:17.563Z,94.15
2022-10-11T22:22:17.919Z,94.35
2022-10-11T22:32:17.951Z,94.76
2022-10-11T22:42:18.267Z,94.66
2022-10-11T22:52:18.303Z,94.96
2022-10-11T23:02:18.626Z,95.41
2022-10-11T23:12:18.652Z,95.72
2022-10-11T23:22:18.974Z,95.97
2022-10-11T23:32:19.000Z,96.07
2022-10-11T23:42:19.321Z,95.97
2022-10-11T23:52:19.350Z,96.07
